Time;durP1;ratioP1;P1;durP2;ratioP2;P2;SDS_P1;SDS_P2;PMS_P1;PMS_P2;Temp;Humidity;BMP_temperature;BMP_pressure;BME280_temperature;BME280_humidity;BME280_pressure;Samples;Min_cycle;Max_cycle;Signal;HPM_P1;HPM_P2
2021/03/21 00:01:43;;;;;;;4.70;2.85;;;3.60;1.00;;;;;;4988639;28;20035;-75
2021/03/21 00:04:11;;;;;;;7.13;3.00;;;3.60;1.00;;;;;;4995612;28;20034;-76
2021/03/21 00:06:36;;;;;;;3.40;3.10;;;3.60;1.00;;;;;;4994974;28;20038;-81
2021/03/21 00:09:02;;;;;;;6.28;4.38;;;3.60;5.00;;;;;;4998655;28;20026;-74
2021/03/21 00:11:28;;;;;;;5.38;3.83;;;3.70;1.00;;;;;;4995897;28;20050;-74
2021/03/21 00:13:53;;;;;;;4.68;3.85;;;3.70;1.00;;;;;;4995507;28;20033;-75
2021/03/21 00:16:19;;;;;;;4.55;3.58;;;3.70;1.00;;;;;;4996073;28;20029;-75
2021/03/21 00:18:46;;;;;;;5.80;3.10;;;3.60;1.00;;;;;;4994851;28;20026;-73
2021/03/21 00:21:12;;;;;;;5.15;3.20;;;3.60;4.60;;;;;;5008619;28;20061;-73
2021/03/21 00:23:38;;;;;;;7.95;4.07;;;3.60;13.40;;;;;;5013496;28;20106;-74
2021/03/21 00:26:06;;;;;;;4.95;3.22;;;3.70;55.10;;;;;;4995976;28;20090;-75
2021/03/21 00:28:33;;;;;;;4.13;3.17;;;3.60;28.70;;;;;;4979066;28;20035;-75
2021/03/21 00:31:00;;;;;;;5.95;3.97;;;3.60;79.40;;;;;;4986036;28;20030;-73
2021/03/21 00:33:28;;;;;;;4.20;3.33;;;3.60;97.10;;;;;;5011251;28;20080;-73
2021/03/21 00:35:54;;;;;;;4.75;3.50;;;3.60;27.80;;;;;;5016736;28;20022;-73
2021/03/21 00:38:28;;;;;;;6.65;3.95;;;3.60;29.70;;;;;;4990089;28;20027;-74
2021/03/21 00:40:54;;;;;;;5.07;3.58;;;3.50;20.00;;;;;;4974363;28;20030;-74
2021/03/21 00:43:20;;;;;;;4.25;3.42;;;3.50;1.00;;;;;;4975524;28;20034;-74
2021/03/21 00:45:46;;;;;;;4.03;3.63;;;3.60;1.00;;;;;;4988263;28;20034;-74
2021/03/21 00:48:20;;;;;;;4.75;3.72;;;3.60;1.00;;;;;;4997961;28;20481;-76
2021/03/21 00:50:46;;;;;;;5.65;3.67;;;3.50;1.00;;;;;;4999276;28;20027;-75
2021/03/21 00:53:11;;;;;;;3.53;3.15;;;3.50;1.00;;;;;;4999042;28;20450;-74
2021/03/21 00:55:37;;;;;;;5.13;3.38;;;3.50;1.00;;;;;;5000871;28;20021;-75
2021/03/21 00:58:04;;;;;;;4.18;3.22;;;3.50;1.00;;;;;;4997646;28;20023;-74
2021/03/21 01:00:34;;;;;;;5.13;3.63;;;3.50;1.00;;;;;;4996498;28;20038;-75
2021/03/21 01:03:00;;;;;;;4.20;3.33;;;3.50;1.00;;;;;;4989598;28;20092;-76
2021/03/21 01:05:35;;;;;;;4.38;3.75;;;3.50;1.00;;;;;;5001183;28;20440;-75
2021/03/21 01:08:04;;;;;;;5.53;2.75;;;3.50;1.00;;;;;;4995905;28;20026;-74
2021/03/21 01:10:35;;;;;;;5.95;2.80;;;3.50;1.00;;;;;;4995062;28;20030;-72
2021/03/21 01:13:01;;;;;;;6.60;3.45;;;3.60;1.00;;;;;;4995910;28;20023;-73
2021/03/21 01:15:29;;;;;;;4.60;3.40;;;3.60;1.00;;;;;;4997548;28;20510;-74
2021/03/21 01:17:55;;;;;;;5.07;3.13;;;3.60;1.00;;;;;;4998063;28;20080;-72
2021/03/21 01:20:25;;;;;;;3.85;3.30;;;3.70;1.00;;;;;;4998436;28;20041;-74
2021/03/21 01:22:51;;;;;;;5.45;2.95;;;3.60;1.00;;;;;;4997001;28;20049;-73
2021/03/21 01:25:25;;;;;;;4.97;3.67;;;3.60;1.00;;;;;;5003391;28;20041;-73
2021/03/21 01:27:54;;;;;;;7.82;3.15;;;3.60;1.00;;;;;;5005530;28;20056;-74
2021/03/21 01:30:21;;;;;;;5.40;3.13;;;3.60;1.20;;;;;;4999379;28;20124;-75
2021/03/21 01:32:47;;;;;;;3.65;2.83;;;3.60;1.00;;;;;;5015598;23;20039;-71
2021/03/21 01:35:13;;;;;;;5.13;2.83;;;3.70;1.00;;;;;;4981190;28;20034;-72
2021/03/21 01:37:39;;;;;;;5.30;2.90;;;3.60;1.00;;;;;;4980971;28;20034;-69
2021/03/21 01:40:07;;;;;;;3.13;2.83;;;3.60;1.00;;;;;;4967245;28;20102;-70
2021/03/21 01:42:38;;;;;;;4.75;2.83;;;3.70;1.00;;;;;;4959294;28;20089;-70
2021/03/21 01:45:30;;;;;;;3.22;2.55;;;3.60;1.00;;;;;;4982323;28;20450;-72
2021/03/21 01:47:57;;;;;;;5.68;2.67;;;3.50;1.00;;;;;;4971646;28;20046;-72
2021/03/21 01:50:30;;;;;;;3.03;2.53;;;3.50;1.00;;;;;;4974316;28;20031;-72
2021/03/21 01:52:57;;;;;;;3.42;2.80;;;3.50;1.00;;;;;;4986953;28;20536;-69
2021/03/21 01:55:23;;;;;;;3.58;3.00;;;3.50;1.00;;;;;;4994117;28;20034;-72
2021/03/21 01:57:51;;;;;;;2.80;2.58;;;3.50;1.00;;;;;;4982018;28;20468;-71
2021/03/21 02:00:18;;;;;;;6.88;3.08;;;3.50;1.00;;;;;;4974162;28;20030;-71
2021/03/21 02:02:44;;;;;;;4.35;2.67;;;3.50;1.00;;;;;;4977159;28;20085;-70
2021/03/21 02:05:11;;;;;;;6.88;3.15;;;3.50;1.00;;;;;;4976858;28;20209;-71
2021/03/21 02:07:57;;;;;;;5.53;2.90;;;3.50;1.00;;;;;;4974009;28;20045;-71
2021/03/21 02:10:50;;;;;;;3.25;2.72;;;3.50;1.00;;;;;;4975699;28;20029;-71
2021/03/21 02:13:51;;;;;;;4.15;3.40;;;3.50;97.30;;;;;;4974518;28;20042;-71
2021/03/21 02:16:34;;;;;;;3.75;3.13;;;3.50;43.50;;;;;;4977593;28;20074;-70
2021/03/21 02:19:15;;;;;;;3.92;2.90;;;3.50;99.90;;;;;;4974041;28;20403;-70
2021/03/21 02:21:46;;;;;;;4.10;3.38;;;3.50;21.30;;;;;;4968110;28;20035;-71
2021/03/21 02:24:59;;;;;;;5.07;3.50;;;3.50;45.40;;;;;;4977930;28;20121;-71
2021/03/21 02:27:33;;;;;;;4.97;3.30;;;3.50;99.90;;;;;;4956752;28;20511;-71
2021/03/21 02:30:28;;;;;;;5.20;3.25;;;3.40;99.90;;;;;;4955075;28;20094;-71
2021/03/21 02:32:54;;;;;;;4.47;3.58;;;3.50;99.90;;;;;;4976987;28;20490;-71
2021/03/21 02:35:26;;;;;;;4.30;3.17;;;3.50;99.90;;;;;;4984046;28;20038;-71
2021/03/21 02:38:00;;;;;;;5.93;3.15;;;3.50;99.90;;;;;;4982377;28;20026;-71
2021/03/21 02:40:49;;;;;;;4.68;3.67;;;3.50;99.90;;;;;;4995325;28;20089;-71
2021/03/21 02:43:24;;;;;;;4.88;3.95;;;3.50;99.90;;;;;;4986097;28;20065;-71
2021/03/21 02:45:54;;;;;;;4.18;3.30;;;3.50;99.90;;;;;;4990935;28;20026;-70
2021/03/21 02:48:26;;;;;;;5.53;3.83;;;3.50;99.90;;;;;;4979080;28;20052;-71
2021/03/21 02:50:56;;;;;;;3.75;3.10;;;3.50;99.90;;;;;;4983202;28;20018;-71
2021/03/21 02:53:35;;;;;;;5.80;2.83;;;3.60;99.90;;;;;;4986621;28;20031;-70
2021/03/21 02:56:02;;;;;;;5.35;3.05;;;3.50;99.90;;;;;;4991869;28;20525;-71
2021/03/21 02:58:36;;;;;;;4.30;3.10;;;3.60;99.90;;;;;;4974641;28;20053;-70
2021/03/21 03:01:19;;;;;;;3.50;2.90;;;3.60;99.90;;;;;;4971809;28;20487;-71
2021/03/21 03:03:48;;;;;;;5.60;3.13;;;3.50;99.90;;;;;;4970949;28;20049;-70
2021/03/21 03:06:23;;;;;;;3.85;3.05;;;3.50;99.90;;;;;;4970393;28;20026;-70
2021/03/21 03:08:53;;;;;;;3.20;2.90;;;3.50;99.90;;;;;;4974842;28;20022;-70
2021/03/21 03:11:25;;;;;;;3.38;2.90;;;3.50;99.90;;;;;;4978650;28;20030;-71
2021/03/21 03:13:59;;;;;;;4.03;3.10;;;3.50;1.00;;;;;;4979046;28;20035;-71
2021/03/21 03:16:34;;;;;;;4.45;2.95;;;3.50;99.90;;;;;;4988034;28;20113;-70
2021/03/21 03:19:30;;;;;;;3.78;2.80;;;3.50;99.90;;;;;;4971323;28;20015;-71
2021/03/21 03:22:22;;;;;;;3.40;2.50;;;3.50;99.90;;;;;;4977980;28;20038;-70
2021/03/21 03:25:23;;;;;;;4.32;3.40;;;3.50;99.90;;;;;;4979736;28;20618;-71
2021/03/21 03:27:54;;;;;;;5.47;3.38;;;3.50;1.00;;;;;;4984281;28;20057;-72
2021/03/21 03:30:26;;;;;;;3.92;3.20;;;3.50;1.00;;;;;;4972556;28;20027;-72
2021/03/21 03:32:53;;;;;;;3.50;2.78;;;3.50;99.90;;;;;;4969773;28;20547;-69
2021/03/21 03:35:20;;;;;;;3.70;2.90;;;3.50;1.00;;;;;;4979033;28;20086;-70
2021/03/21 03:37:46;;;;;;;5.57;2.90;;;3.50;1.00;;;;;;4971118;28;20024;-70
2021/03/21 03:40:25;;;;;;;2.85;2.60;;;3.50;1.00;;;;;;4974287;28;20038;-71
2021/03/21 03:43:22;;;;;;;3.38;3.08;;;3.50;1.00;;;;;;4977104;28;20023;-71
2021/03/21 03:46:08;;;;;;;5.55;3.40;;;3.50;1.00;;;;;;4981392;28;20029;-71
2021/03/21 03:48:36;;;;;;;5.00;3.17;;;3.50;99.90;;;;;;4983614;28;20026;-71
2021/03/21 03:51:19;;;;;;;3.58;2.88;;;3.50;99.90;;;;;;4977408;28;20106;-71
2021/03/21 03:53:55;;;;;;;3.42;2.75;;;3.50;99.90;;;;;;4980057;28;20111;-71
2021/03/21 03:56:27;;;;;;;4.07;2.95;;;3.50;99.90;;;;;;4988547;28;20026;-71
2021/03/21 03:59:27;;;;;;;5.05;3.53;;;3.50;1.00;;;;;;4982124;28;20087;-70
2021/03/21 04:02:11;;;;;;;4.35;3.03;;;3.50;1.00;;;;;;4982534;28;20113;-70
2021/03/21 04:04:40;;;;;;;4.20;2.83;;;3.50;1.00;;;;;;4970808;28;20498;-71
2021/03/21 04:07:34;;;;;;;5.95;3.47;;;3.50;99.90;;;;;;4972057;28;20503;-70
2021/03/21 04:10:07;;;;;;;4.97;2.63;;;3.50;1.00;;;;;;4979599;28;20122;-71
2021/03/21 04:12:42;;;;;;;5.43;3.13;;;3.50;1.00;;;;;;4984531;28;20033;-71
2021/03/21 04:15:20;;;;;;;3.35;2.53;;;3.50;1.00;;;;;;4978738;28;20040;-70
2021/03/21 04:18:09;;;;;;;4.80;3.30;;;3.40;1.00;;;;;;4974238;28;20031;-70
2021/03/21 04:20:39;;;;;;;3.88;2.92;;;3.40;1.00;;;;;;4982143;28;20110;-69
2021/03/21 04:23:26;;;;;;;4.22;3.53;;;3.40;1.00;;;;;;4987606;28;20094;-70
2021/03/21 04:26:00;;;;;;;7.22;3.15;;;3.40;11.20;;;;;;4980183;28;20041;-71
2021/03/21 04:28:46;;;;;;;4.97;2.47;;;3.40;22.40;;;;;;4972809;28;20399;-71
2021/03/21 04:31:14;;;;;;;4.28;2.53;;;3.50;74.40;;;;;;4970622;28;20041;-71
2021/03/21 04:33:51;;;;;;;3.78;2.55;;;3.50;75.70;;;;;;4971396;28;20043;-71
2021/03/21 04:36:27;;;;;;;5.60;3.03;;;3.50;74.40;;;;;;4972397;28;20018;-72
2021/03/21 04:39:02;;;;;;;4.75;3.28;;;3.50;99.90;;;;;;4982306;28;20042;-71
2021/03/21 04:41:38;;;;;;;4.15;2.50;;;3.50;99.90;;;;;;4983659;28;20014;-72
2021/03/21 04:44:21;;;;;;;4.20;2.95;;;3.50;99.90;;;;;;4980796;28;20442;-71
2021/03/21 04:47:06;;;;;;;2.97;2.58;;;3.50;99.90;;;;;;4983025;28;20076;-71
2021/03/21 04:49:32;;;;;;;3.97;2.65;;;3.60;77.70;;;;;;4977543;28;20019;-71
2021/03/21 04:52:18;;;;;;;4.90;3.15;;;3.50;99.90;;;;;;4984784;28;20031;-72
2021/03/21 04:54:47;;;;;;;4.00;3.38;;;3.50;99.90;;;;;;4994406;28;20023;-71
2021/03/21 04:57:28;;;;;;;3.05;2.40;;;3.50;99.90;;;;;;4972349;28;20046;-71
2021/03/21 04:59:55;;;;;;;4.93;2.83;;;3.50;99.90;;;;;;4974233;28;20023;-70
2021/03/21 05:02:27;;;;;;;3.03;2.53;;;3.50;99.90;;;;;;4974316;28;20031;-70
2021/03/21 05:04:59;;;;;;;3.67;2.80;;;3.60;99.90;;;;;;4985765;28;20447;-72
2021/03/21 05:07:26;;;;;;;5.30;3.28;;;3.60;99.90;;;;;;4979566;28;20569;-72
2021/03/21 05:09:56;;;;;;;3.75;3.00;;;3.60;99.90;;;;;;4974315;28;20034;-71
2021/03/21 05:12:38;;;;;;;3.27;2.83;;;3.60;99.90;;;;;;4982813;28;20117;-71
2021/03/21 05:15:26;;;;;;;4.28;3.20;;;3.60;99.90;;;;;;4978467;28;20114;-70
2021/03/21 05:18:01;;;;;;;4.07;3.00;;;3.60;1.00;;;;;;4977590;28;20039;-70
2021/03/21 05:20:49;;;;;;;3.53;2.95;;;3.60;99.90;;;;;;4978983;28;20042;-70
2021/03/21 05:23:29;;;;;;;2.88;2.60;;;3.60;99.90;;;;;;4981023;28;20046;-71
2021/03/21 05:26:12;;;;;;;3.45;2.83;;;3.60;2.40;;;;;;4984131;28;20034;-71
2021/03/21 05:29:15;;;;;;;2.72;2.40;;;3.60;1.00;;;;;;4980787;28;20023;-73
2021/03/21 05:31:40;;;;;;;4.43;2.72;;;3.60;1.00;;;;;;4980077;28;20031;-71
2021/03/21 05:34:06;;;;;;;3.40;3.10;;;3.60;1.00;;;;;;4974231;28;20033;-71
2021/03/21 05:36:41;;;;;;;4.18;3.25;;;3.60;45.40;;;;;;4982572;28;20035;-71
2021/03/21 05:39:31;;;;;;;4.35;3.10;;;3.60;99.90;;;;;;4974083;28;20081;-71
2021/03/21 05:42:34;;;;;;;4.60;3.50;;;3.60;1.00;;;;;;4972109;28;20089;-72
2021/03/21 05:45:41;;;;;;;3.58;2.67;;;3.60;99.90;;;;;;4977405;28;20134;-72
2021/03/21 05:48:25;;;;;;;4.78;2.92;;;3.60;99.90;;;;;;4959046;28;20042;-70
2021/03/21 05:51:15;;;;;;;4.72;3.08;;;3.60;99.90;;;;;;4968250;28;20023;-71
2021/03/21 05:54:04;;;;;;;3.67;3.08;;;3.60;99.90;;;;;;4977737;28;20030;-71
2021/03/21 05:56:51;;;;;;;3.53;3.00;;;3.70;1.00;;;;;;4981154;28;20033;-71
2021/03/21 05:59:47;;;;;;;3.30;2.55;;;3.70;99.90;;;;;;4970381;28;20102;-71
2021/03/21 06:02:46;;;;;;;4.00;2.90;;;3.70;1.00;;;;;;4971287;28;20438;-71
2021/03/21 06:05:49;;;;;;;4.53;3.00;;;3.70;1.00;;;;;;4982626;28;20030;-70
2021/03/21 06:08:45;;;;;;;4.93;3.65;;;3.70;1.00;;;;;;4975888;28;20581;-71
2021/03/21 06:11:16;;;;;;;5.18;2.53;;;3.70;1.00;;;;;;4980068;28;20030;-71
2021/03/21 06:13:52;;;;;;;;;;;3.70;99.90;;;;;;4991027;28;20105;-70
2021/03/21 06:16:25;;;;;;;3.95;2.78;;;3.70;1.00;;;;;;4969411;28;20375;-71
2021/03/21 06:19:04;;;;;;;4.53;3.00;;;3.80;1.00;;;;;;4976787;28;20090;-71
2021/03/21 06:22:24;;;;;;;6.38;2.97;;;3.90;99.90;;;;;;4978385;28;20090;-71
2021/03/21 06:24:58;;;;;;;5.15;3.67;;;3.90;99.90;;;;;;4893378;29;20032;-72
2021/03/21 06:28:01;;;;;;;3.40;2.80;;;3.90;1.00;;;;;;4973921;28;20050;-71
2021/03/21 06:30:58;;;;;;;3.13;2.83;;;4.00;99.90;;;;;;4979745;28;20482;-71
2021/03/21 06:33:49;;;;;;;4.18;3.47;;;3.90;99.90;;;;;;4975029;28;20507;-71
2021/03/21 06:36:47;;;;;;;4.03;2.67;;;3.90;99.90;;;;;;4968931;28;20787;-72
2021/03/21 06:39:18;;;;;;;3.35;2.70;;;3.90;99.90;;;;;;4974328;28;20035;-71
2021/03/21 06:42:02;;;;;;;3.53;2.97;;;3.90;99.90;;;;;;4977610;28;20110;-71
2021/03/21 06:45:06;;;;;;;5.40;3.22;;;4.00;99.90;;;;;;4992579;28;20018;-71
2021/03/21 06:48:09;;;;;;;2.88;2.40;;;3.90;99.90;;;;;;4993825;28;20391;-71
2021/03/21 06:50:48;;;;;;;6.45;2.50;;;3.90;1.00;;;;;;4979458;28;20035;-71
2021/03/21 06:53:36;;;;;;;3.95;3.40;;;3.90;1.00;;;;;;4976484;28;20118;-71
2021/03/21 06:56:25;;;;;;;2.83;2.53;;;4.00;99.90;;;;;;4996507;28;20014;-71
2021/03/21 06:59:21;;;;;;;3.03;2.60;;;4.00;99.90;;;;;;4991524;28;20058;-71
2021/03/21 07:02:05;;;;;;;4.40;2.67;;;4.00;99.90;;;;;;4978993;28;20035;-70
2021/03/21 07:04:58;;;;;;;2.80;2.60;;;4.00;1.00;;;;;;4987329;28;20120;-71
2021/03/21 07:08:01;;;;;;;3.67;2.72;;;4.00;99.90;;;;;;4988823;28;20063;-70
2021/03/21 07:11:03;;;;;;;3.75;2.90;;;4.10;1.00;;;;;;4986740;28;20069;-72
2021/03/21 07:14:16;;;;;;;3.35;2.72;;;4.10;1.00;;;;;;4982178;28;20097;-71
2021/03/21 07:17:02;;;;;;;3.92;2.90;;;4.20;1.00;;;;;;4951588;29;20123;-71
2021/03/21 07:19:56;;;;;;;5.80;3.00;;;4.20;99.90;;;;;;4982009;28;20046;-71
2021/03/21 07:23:16;;;;;;;4.75;2.55;;;4.10;99.90;;;;;;4967381;28;20455;-71
2021/03/21 07:26:02;;;;;;;4.13;2.97;;;4.10;1.00;;;;;;4963742;28;20431;-70
2021/03/21 07:28:46;;;;;;;9.80;2.70;;;4.20;99.90;;;;;;4982367;28;20067;-70
2021/03/21 07:31:27;;;;;;;4.35;2.80;;;4.20;99.90;;;;;;4974033;28;20058;-72
2021/03/21 07:34:01;;;;;;;4.38;2.88;;;4.30;99.90;;;;;;5000495;23;20133;-72
2021/03/21 07:36:39;;;;;;;3.80;3.38;;;4.20;19.20;;;;;;4988329;28;20037;-72
2021/03/21 07:39:28;;;;;;;3.53;3.10;;;4.30;99.90;;;;;;4990082;28;20437;-74
2021/03/21 07:42:18;;;;;;;5.50;3.28;;;4.30;86.80;;;;;;4993444;28;20061;-73
2021/03/21 07:44:44;;;;;;;5.13;2.80;;;4.40;12.90;;;;;;4993133;28;20037;-72
2021/03/21 07:47:41;;;;;;;3.70;2.92;;;4.40;1.00;;;;;;4990699;28;20031;-73
2021/03/21 07:50:25;;;;;;;3.70;2.97;;;4.40;99.90;;;;;;5007628;28;20372;-72
2021/03/21 07:53:14;;;;;;;3.45;2.63;;;4.50;99.90;;;;;;4986208;28;20026;-73
2021/03/21 07:56:07;;;;;;;3.40;2.65;;;4.50;61.70;;;;;;4989362;28;20018;-73
2021/03/21 07:58:52;;;;;;;3.47;3.03;;;4.60;99.90;;;;;;4986365;28;20513;-73
2021/03/21 08:01:19;;;;;;;4.93;3.47;;;4.60;99.90;;;;;;4990119;28;20034;-73
2021/03/21 08:04:17;;;;;;;3.20;2.60;;;4.60;99.90;;;;;;4989702;28;20030;-72
2021/03/21 08:06:45;;;;;;;4.57;2.83;;;4.60;16.90;;;;;;4983881;28;20023;-72
2021/03/21 08:09:19;;;;;;;3.70;2.83;;;4.70;99.90;;;;;;4982345;28;20130;-73
2021/03/21 08:11:58;;;;;;;8.50;3.85;;;4.70;1.00;;;;;;4988984;28;20109;-71
2021/03/21 08:14:30;;;;;;;3.95;2.70;;;4.70;22.60;;;;;;4997719;28;20037;-72
2021/03/21 08:17:04;;;;;;;5.57;2.60;;;4.80;99.90;;;;;;4985992;28;20026;-74
2021/03/21 08:19:33;;;;;;;6.85;2.95;;;4.80;99.90;;;;;;4985109;28;20097;-74
2021/03/21 08:21:58;;;;;;;3.42;2.88;;;4.90;1.00;;;;;;4988442;28;20026;-74
2021/03/21 08:24:34;;;;;;;2.95;2.65;;;5.00;99.90;;;;;;4981131;28;20117;-74
2021/03/21 08:27:03;;;;;;;5.28;3.00;;;5.10;99.90;;;;;;4986121;28;20516;-73
2021/03/21 08:30:07;;;;;;;3.90;2.63;;;5.20;99.90;;;;;;4981168;28;20571;-74
2021/03/21 08:32:48;;;;;;;4.22;3.10;;;5.20;99.90;;;;;;4987072;28;20165;-73
2021/03/21 08:35:17;;;;;;;4.78;2.88;;;5.30;99.90;;;;;;4987970;28;20034;-73
2021/03/21 08:37:47;;;;;;;5.18;3.20;;;5.30;99.90;;;;;;4979732;28;20030;-72
2021/03/21 08:40:16;;;;;;;4.70;3.20;;;5.40;99.90;;;;;;4984384;28;20489;-73
2021/03/21 08:42:44;;;;;;;7.20;3.22;;;5.40;99.90;;;;;;4986174;28;20026;-72
2021/03/21 08:45:12;;;;;;;3.55;2.88;;;5.60;99.90;;;;;;4995342;28;20478;-73
2021/03/21 08:47:39;;;;;;;3.50;2.67;;;5.60;99.90;;;;;;4986449;28;20023;-73
2021/03/21 08:50:06;;;;;;;3.80;2.92;;;5.60;99.90;;;;;;4986523;28;20066;-72
2021/03/21 08:52:33;;;;;;;5.20;3.33;;;5.70;99.90;;;;;;4991546;28;20023;-72
2021/03/21 08:55:01;;;;;;;3.58;2.83;;;5.80;99.90;;;;;;4984935;28;20027;-71
2021/03/21 08:57:34;;;;;;;5.45;3.42;;;5.80;1.00;;;;;;4978717;28;20034;-71
2021/03/21 09:00:18;;;;;;;4.05;2.95;;;5.80;4.10;;;;;;4984796;28;20065;-73
2021/03/21 09:02:45;;;;;;;3.30;2.97;;;5.80;1.00;;;;;;4985548;28;20014;-73
2021/03/21 09:05:13;;;;;;;3.45;2.60;;;5.70;1.00;;;;;;4980772;28;20031;-72
2021/03/21 09:08:03;;;;;;;5.00;3.15;;;5.60;1.00;;;;;;4998050;28;20026;-72
2021/03/21 09:10:49;;;;;;;3.55;3.20;;;5.50;35.30;;;;;;4976604;28;20047;-73
2021/03/21 09:13:20;;;;;;;5.55;3.55;;;5.50;99.90;;;;;;4975831;28;20053;-73
2021/03/21 09:15:59;;;;;;;6.05;4.47;;;5.50;99.90;;;;;;4979927;28;20132;-73
2021/03/21 09:18:30;;;;;;;5.10;3.85;;;5.50;99.90;;;;;;4982335;28;20399;-73
2021/03/21 09:21:21;;;;;;;3.93;3.10;;;5.60;99.90;;;;;;4985949;28;20049;-73
2021/03/21 09:23:49;;;;;;;5.07;4.07;;;5.70;99.90;;;;;;4979811;28;20398;-71
2021/03/21 09:26:14;;;;;;;3.88;2.92;;;5.70;99.90;;;;;;4981773;28;20085;-74
2021/03/21 09:28:54;;;;;;;3.97;3.47;;;5.80;99.90;;;;;;4987834;28;20035;-73
2021/03/21 09:31:20;;;;;;;5.18;3.80;;;5.80;99.90;;;;;;4983004;28;20516;-73
2021/03/21 09:34:13;;;;;;;3.85;3.42;;;5.70;99.90;;;;;;4987622;28;20058;-73
2021/03/21 09:36:47;;;;;;;6.05;3.78;;;5.70;99.90;;;;;;4985400;28;20030;-73
2021/03/21 09:39:30;;;;;;;6.03;3.80;;;5.70;99.90;;;;;;4992886;28;20105;-71
2021/03/21 09:41:56;;;;;;;5.07;3.70;;;5.60;99.90;;;;;;4981170;28;20365;-73
2021/03/21 09:44:33;;;;;;;6.43;3.80;;;5.70;99.90;;;;;;5006196;28;20034;-74
2021/03/21 09:47:35;;;;;;;6.05;3.45;;;5.70;99.90;;;;;;5004217;28;20037;-74
2021/03/21 09:50:16;;;;;;;;;;;5.70;99.90;;;;;;4987839;28;20035;-72
2021/03/21 09:53:05;;;;;;;5.70;3.70;;;5.80;99.90;;;;;;4990153;28;20464;-73
2021/03/21 09:55:39;;;;;;;4.05;3.65;;;5.90;99.90;;;;;;4997080;28;20031;-73
2021/03/21 09:58:16;;;;;;;5.72;4.13;;;6.00;99.90;;;;;;4988804;28;20047;-73
2021/03/21 10:00:44;;;;;;;5.13;4.63;;;6.00;99.90;;;;;;4976160;28;20097;-73
2021/03/21 10:03:19;;;;;;;5.75;3.50;;;6.10;99.90;;;;;;4984219;28;20022;-72
2021/03/21 10:05:44;;;;;;;4.53;3.67;;;6.30;99.90;;;;;;4986240;28;20061;-73
2021/03/21 10:08:35;;;;;;;5.15;4.28;;;6.40;99.90;;;;;;4992091;28;20038;-73
2021/03/21 10:11:07;;;;;;;5.57;4.35;;;6.50;99.90;;;;;;4977814;28;20059;-72
2021/03/21 10:13:40;;;;;;;7.65;4.30;;;6.60;1.00;;;;;;4979765;28;20061;-71
2021/03/21 10:16:15;;;;;;;5.05;4.05;;;6.50;99.90;;;;;;4985474;28;20018;-73
2021/03/21 10:18:54;;;;;;;4.57;3.83;;;6.70;1.00;;;;;;4980979;28;20101;-75
2021/03/21 10:21:23;;;;;;;4.68;3.47;;;6.70;24.50;;;;;;4983791;28;20176;-74
2021/03/21 10:23:52;;;;;;;5.82;4.65;;;6.90;99.90;;;;;;4983305;28;20429;-73
2021/03/21 10:26:27;;;;;;;5.85;3.70;;;7.10;99.90;;;;;;4990835;28;20441;-73
2021/03/21 10:29:00;;;;;;;7.13;4.63;;;6.70;1.00;;;;;;4991029;28;20022;-74
2021/03/21 10:31:27;;;;;;;5.88;4.28;;;6.40;99.90;;;;;;4987532;28;20041;-73
2021/03/21 10:34:13;;;;;;;6.38;4.25;;;6.20;99.90;;;;;;4981589;28;20438;-73
2021/03/21 10:36:41;;;;;;;4.85;4.22;;;6.20;99.90;;;;;;4989521;28;20149;-73
2021/03/21 10:39:23;;;;;;;5.80;4.32;;;6.30;99.90;;;;;;4985037;28;20027;-73
2021/03/21 10:41:53;;;;;;;5.55;4.82;;;6.00;1.00;;;;;;4981332;28;20022;-72
2021/03/21 10:44:21;;;;;;;7.40;4.55;;;6.00;1.00;;;;;;4986559;28;20026;-73
2021/03/21 10:46:53;;;;;;;4.78;4.38;;;6.00;99.90;;;;;;4992303;28;20034;-75
2021/03/21 10:49:45;;;;;;;5.65;4.50;;;5.90;1.00;;;;;;4990904;28;20030;-73
2021/03/21 10:52:23;;;;;;;5.15;4.65;;;5.80;99.90;;;;;;4992015;28;20085;-73
2021/03/21 10:55:16;;;;;;;4.95;4.45;;;5.50;1.00;;;;;;4999237;28;20018;-73
2021/03/21 10:57:45;;;;;;;8.70;5.25;;;5.60;1.00;;;;;;4983875;28;20030;-73
2021/03/21 11:00:18;;;;;;;6.32;5.55;;;5.60;1.00;;;;;;4987757;28;20027;-74
2021/03/21 11:03:10;;;;;;;7.78;5.82;;;5.50;1.00;;;;;;4976053;28;20398;-72
2021/03/21 11:05:40;;;;;;;9.05;5.80;;;5.50;1.00;;;;;;4977188;28;20070;-76
2021/03/21 11:08:27;;;;;;;7.07;5.95;;;5.30;1.00;;;;;;4989130;28;20027;-74
2021/03/21 11:10:56;;;;;;;6.60;5.65;;;5.50;1.00;;;;;;4985499;28;20035;-73
2021/03/21 11:13:33;;;;;;;6.80;6.10;;;5.70;1.00;;;;;;4979256;28;20390;-74
2021/03/21 11:16:07;;;;;;;6.95;6.25;;;5.80;1.00;;;;;;4989117;28;20033;-74
2021/03/21 11:18:34;;;;;;;7.28;6.25;;;6.10;99.90;;;;;;4995849;28;20027;-73
2021/03/21 11:21:02;;;;;;;8.73;5.45;;;6.30;99.90;;;;;;4980206;28;20406;-72
2021/03/21 11:23:28;;;;;;;6.13;5.25;;;6.40;21.90;;;;;;4985621;28;20023;-73
2021/03/21 11:25:54;;;;;;;5.72;5.15;;;6.40;99.90;;;;;;4996045;28;20541;-73
2021/03/21 11:28:38;;;;;;;6.30;4.90;;;6.50;1.00;;;;;;4994319;28;20122;-74
2021/03/21 11:31:08;;;;;;;6.20;5.60;;;6.50;1.00;;;;;;4988384;28;20027;-73
2021/03/21 11:33:45;;;;;;;7.87;5.30;;;6.30;28.40;;;;;;4986729;28;20031;-74
2021/03/21 11:36:29;;;;;;;6.05;5.13;;;6.30;18.30;;;;;;4998268;28;20494;-77
2021/03/21 11:38:55;;;;;;;9.77;5.97;;;6.20;99.90;;;;;;4985435;28;20042;-74
2021/03/21 11:41:38;;;;;;;6.95;4.93;;;6.40;99.90;;;;;;4992935;28;20042;-72
2021/03/21 11:44:25;;;;;;;6.68;5.40;;;6.50;99.90;;;;;;4984580;28;20022;-74
2021/03/21 11:46:53;;;;;;;8.32;5.20;;;6.40;99.90;;;;;;4994037;28;20089;-72
2021/03/21 11:49:22;;;;;;;7.80;5.20;;;6.40;99.90;;;;;;4994792;28;20027;-72
2021/03/21 11:51:56;;;;;;;6.05;5.43;;;6.50;99.90;;;;;;4987745;28;20028;-75
2021/03/21 11:54:22;;;;;;;10.80;5.25;;;6.70;99.90;;;;;;4995930;28;20426;-73
2021/03/21 11:56:56;;;;;;;5.55;5.05;;;6.70;99.90;;;;;;4995314;28;20018;-72
2021/03/21 11:59:37;;;;;;;5.28;4.75;;;6.70;1.00;;;;;;4987778;28;20086;-73
2021/03/21 12:02:20;;;;;;;5.70;5.20;;;6.60;1.00;;;;;;4996985;28;20026;-75
2021/03/21 12:04:45;;;;;;;5.20;4.38;;;6.70;99.90;;;;;;4984969;28;20023;-73
2021/03/21 12:07:23;;;;;;;9.05;5.03;;;6.60;1.00;;;;;;4980681;28;20034;-73
2021/03/21 12:09:50;;;;;;;6.95;4.07;;;6.50;1.00;;;;;;4991921;28;20030;-72
2021/03/21 12:12:37;;;;;;;5.47;4.55;;;6.60;27.90;;;;;;4996310;28;20034;-73
2021/03/21 12:15:13;;;;;;;5.53;4.93;;;6.70;51.70;;;;;;4990576;28;20049;-73
2021/03/21 12:17:41;;;;;;;4.75;3.80;;;6.40;99.90;;;;;;4994915;28;20398;-73
2021/03/21 12:20:31;;;;;;;4.47;3.72;;;6.30;99.90;;;;;;4980568;28;20514;-74
2021/03/21 12:22:58;;;;;;;4.73;4.23;;;6.30;1.00;;;;;;4996509;28;20478;-74
2021/03/21 12:25:35;;;;;;;7.30;4.45;;;6.50;1.00;;;;;;4991263;28;20022;-74
2021/03/21 12:28:13;;;;;;;5.63;4.75;;;6.50;1.00;;;;;;4988577;28;20054;-74
2021/03/21 12:30:51;;;;;;;4.65;4.13;;;6.60;1.00;;;;;;4992124;28;20042;-74
2021/03/21 12:33:31;;;;;;;4.18;3.78;;;6.70;1.00;;;;;;4983746;28;20031;-74
2021/03/21 12:36:03;;;;;;;5.37;3.43;;;6.70;1.00;;;;;;4982601;28;20034;-75
2021/03/21 12:38:36;;;;;;;3.70;3.30;;;6.70;1.00;;;;;;4979494;28;20026;-74
2021/03/21 12:41:24;;;;;;;4.63;4.15;;;6.70;1.00;;;;;;4985962;28;20038;-74
2021/03/21 12:44:11;;;;;;;5.45;4.07;;;6.80;1.00;;;;;;4987764;28;20026;-73
2021/03/21 12:47:14;;;;;;;5.70;4.50;;;6.80;1.30;;;;;;4985823;28;20026;-73
2021/03/21 12:49:46;;;;;;;6.50;4.68;;;7.00;1.00;;;;;;4989390;28;20453;-74
2021/03/21 12:52:27;;;;;;;4.95;4.45;;;7.20;1.00;;;;;;4994360;28;20035;-73
2021/03/21 12:54:53;;;;;;;6.88;4.32;;;7.40;1.00;;;;;;4994313;28;20474;-73
2021/03/21 12:57:19;;;;;;;5.45;4.03;;;7.60;1.00;;;;;;4991746;28;20026;-73
2021/03/21 12:59:50;;;;;;;4.43;4.03;;;7.80;1.00;;;;;;4989692;28;20113;-73
2021/03/21 13:02:36;;;;;;;4.07;3.67;;;7.80;1.00;;;;;;4986485;28;20031;-73
2021/03/21 13:05:21;;;;;;;4.70;4.18;;;7.70;1.00;;;;;;4988704;28;20034;-72
2021/03/21 13:07:47;;;;;;;6.53;4.60;;;8.20;1.00;;;;;;4991533;28;20532;-73
2021/03/21 13:10:13;;;;;;;4.50;4.10;;;7.90;1.00;;;;;;4979159;28;20046;-73
2021/03/21 13:12:39;;;;;;;4.80;4.32;;;8.00;1.00;;;;;;4982976;28;20380;-74
2021/03/21 13:15:06;;;;;;;4.97;4.47;;;8.00;1.00;;;;;;4981488;28;20046;-72
2021/03/21 13:17:32;;;;;;;6.50;5.85;;;7.80;1.00;;;;;;4996570;28;20026;-74
2021/03/21 13:19:57;;;;;;;4.90;3.92;;;7.80;1.00;;;;;;4994722;28;20026;-73
2021/03/21 13:22:34;;;;;;;6.07;4.43;;;7.60;1.00;;;;;;4996837;28;20034;-73
2021/03/21 13:25:00;;;;;;;4.28;3.88;;;7.40;11.50;;;;;;4987127;28;20027;-73
2021/03/21 13:27:26;;;;;;;4.90;4.40;;;6.90;90.90;;;;;;4997769;28;20026;-74
2021/03/21 13:29:53;;;;;;;4.93;4.20;;;6.90;98.50;;;;;;4995824;28;20038;-73
2021/03/21 13:32:19;;;;;;;5.50;4.38;;;7.00;92.20;;;;;;4986826;28;20023;-72
2021/03/21 13:34:45;;;;;;;4.53;4.00;;;7.20;63.60;;;;;;4986450;28;20022;-72
2021/03/21 13:37:11;;;;;;;5.07;4.57;;;7.40;39.40;;;;;;4997165;28;20042;-74
2021/03/21 13:39:37;;;;;;;5.05;4.55;;;7.60;23.90;;;;;;4987356;28;20042;-73
2021/03/21 13:42:03;;;;;;;5.63;5.10;;;7.40;34.60;;;;;;4990172;28;20027;-73
2021/03/21 13:44:29;;;;;;;5.05;4.57;;;7.50;44.10;;;;;;4993488;28;20045;-73
2021/03/21 13:46:54;;;;;;;5.10;4.50;;;7.70;5.20;;;;;;4990309;28;20023;-73
2021/03/21 13:49:20;;;;;;;4.55;4.15;;;7.70;6.30;;;;;;5000651;28;20082;-73
2021/03/21 13:51:46;;;;;;;6.13;5.15;;;7.80;1.00;;;;;;4996574;28;20402;-72
2021/03/21 13:54:13;;;;;;;4.68;4.20;;;7.70;18.90;;;;;;4993161;28;20371;-73